createdAt,value
2023-01-09T00:02:08.989Z,9.00
2023-01-09T00:07:11.544Z,9.40
2023-01-09T00:12:13.499Z,9.90
2023-01-09T00:17:15.258Z,9.20
2023-01-09T00:32:21.918Z,9.40
2023-01-09T00:37:23.984Z,9.40
2023-01-09T00:42:30.740Z,9.30
2023-01-09T00:47:48.401Z,9.40
2023-01-09T00:52:52.860Z,9.40
2023-01-09T00:57:56.120Z,9.40
2023-01-09T01:08:00.389Z,9.40
2023-01-09T01:13:02.295Z,9.50
2023-01-09T01:18:04.295Z,9.40
2023-01-09T01:28:09.326Z,9.40
2023-01-09T01:33:11.585Z,9.40
2023-01-09T01:38:13.391Z,9.40
2023-01-09T01:43:15.134Z,9.50
2023-01-09T01:48:20.876Z,9.30
2023-01-09T01:53:32.794Z,9.30
2023-01-09T01:58:40.635Z,9.40
2023-01-09T02:03:43.456Z,9.50
2023-01-09T02:08:46.481Z,9.40
2023-01-09T02:13:48.695Z,9.40
2023-01-09T02:19:01.490Z,9.60
2023-01-09T02:24:15.498Z,9.40
2023-01-09T02:29:25.769Z,9.30
2023-01-09T02:34:57.694Z,9.30
2023-01-09T02:40:20.975Z,9.30
2023-01-09T02:45:22.909Z,9.30
2023-01-09T02:50:47.713Z,9.30
2023-01-09T02:56:10.916Z,9.20
2023-01-09T03:01:24.661Z,9.20
2023-01-09T03:06:54.283Z,9.30
2023-01-09T03:12:02.817Z,9.30
2023-01-09T03:17:08.016Z,9.30
2023-01-09T03:22:09.825Z,9.50
2023-01-09T03:32:13.793Z,9.20
2023-01-09T03:37:15.570Z,9.50
2023-01-09T03:47:19.576Z,9.20
2023-01-09T03:52:21.368Z,9.40
2023-01-09T03:57:24.266Z,9.30
2023-01-09T04:02:26.051Z,9.20
2023-01-09T04:12:30.084Z,9.10
2023-01-09T04:17:31.925Z,8.90
2023-01-09T04:27:36.215Z,8.30
2023-01-09T04:37:40.279Z,7.70
2023-01-09T04:42:42.266Z,7.60
2023-01-09T04:47:44.746Z,7.70
2023-01-09T04:57:48.733Z,7.90
2023-01-09T05:02:50.532Z,7.80
2023-01-09T05:07:52.288Z,7.80
2023-01-09T05:12:54.042Z,7.60
2023-01-09T05:28:01.444Z,7.80
2023-01-09T05:33:03.565Z,7.80
2023-01-09T05:38:05.374Z,7.70
2023-01-09T05:43:07.291Z,7.80
2023-01-09T05:48:09.217Z,7.90
2023-01-09T05:53:10.972Z,7.80
2023-01-09T06:18:21.440Z,7.20
2023-01-09T06:23:23.190Z,7.20
2023-01-09T06:28:24.965Z,7.10
2023-01-09T06:33:26.734Z,7.20
2023-01-09T06:43:31.356Z,7.00
2023-01-09T06:53:35.714Z,7.50
2023-01-09T06:58:37.477Z,8.20
2023-01-09T07:08:41.623Z,7.50
2023-01-09T07:13:43.950Z,7.40
2023-01-09T07:18:46.274Z,7.50
2023-01-09T07:23:48.522Z,7.60
2023-01-09T07:28:50.282Z,7.30
2023-01-09T07:43:57.318Z,7.50
2023-01-09T07:48:59.194Z,7.30
2023-01-09T07:54:01.301Z,7.30
2023-01-09T07:59:03.124Z,7.30
2023-01-09T08:04:05.026Z,7.30
2023-01-09T08:09:06.995Z,7.60
2023-01-09T08:14:08.894Z,7.70
2023-01-09T08:19:12.172Z,7.70
2023-01-09T08:24:14.096Z,7.50
2023-01-09T08:29:15.904Z,7.80
2023-01-09T08:39:20.290Z,10.70
2023-01-09T08:44:41.150Z,11.70
2023-01-09T08:49:43.022Z,11.30
2023-01-09T08:59:47.109Z,11.50
2023-01-09T09:04:52.918Z,11.80
2023-01-09T09:09:55.024Z,13.70
2023-01-09T09:15:15.406Z,13.90
2023-01-09T09:20:17.394Z,14.40
2023-01-09T09:25:19.812Z,16.30
2023-01-09T09:30:23.530Z,16.60
2023-01-09T09:35:25.578Z,16.10
2023-01-09T09:40:42.789Z,13.90
2023-01-09T09:45:56.768Z,12.70
2023-01-09T09:51:10.327Z,11.20
2023-01-09T09:56:15.835Z,11.10
2023-01-09T10:01:23.301Z,9.80
2023-01-09T10:06:31.340Z,9.80
2023-01-09T10:11:49.516Z,9.60
2023-01-09T10:16:57.314Z,9.10
2023-01-09T10:22:10.382Z,9.00
2023-01-09T10:27:53.421Z,8.80
2023-01-09T10:33:14.274Z,9.40
2023-01-09T10:38:25.576Z,9.50
2023-01-09T10:43:36.335Z,9.60
2023-01-09T10:48:44.176Z,9.80
2023-01-09T10:53:52.704Z,9.30
2023-01-09T10:58:55.965Z,9.60
2023-01-09T11:04:02.740Z,10.80
2023-01-09T11:09:06.804Z,10.90
2023-01-09T11:14:22.698Z,11.40
2023-01-09T11:19:25.948Z,11.60
2023-01-09T11:24:29.659Z,13.90
2023-01-09T11:29:31.515Z,16.20
2023-01-09T11:34:36.827Z,19.90
2023-01-09T11:39:41.866Z,17.20
2023-01-09T11:44:43.957Z,15.40
2023-01-09T11:49:51.315Z,14.30
2023-01-09T11:54:58.233Z,12.10
2023-01-09T12:00:03.928Z,11.00
2023-01-09T12:05:27.062Z,12.60
2023-01-09T12:10:37.899Z,12.50
2023-01-09T12:15:51.902Z,11.20
2023-01-09T12:21:15.316Z,11.20
2023-01-09T12:26:43.379Z,10.20
2023-01-09T12:32:04.545Z,10.10
2023-01-09T12:37:33.079Z,10.20
2023-01-09T12:42:53.046Z,10.10
2023-01-09T12:48:02.363Z,10.20
2023-01-09T12:53:27.174Z,9.40
2023-01-09T12:58:49.539Z,9.20
2023-01-09T13:04:18.192Z,9.20
2023-01-09T13:09:26.381Z,8.80
2023-01-09T13:14:46.014Z,8.90
2023-01-09T13:19:48.340Z,8.90
2023-01-09T13:25:35.044Z,8.60
2023-01-09T13:30:49.766Z,8.10
2023-01-09T13:35:54.549Z,9.10
2023-01-09T13:41:22.495Z,8.70
2023-01-09T13:46:33.557Z,10.10
2023-01-09T13:52:01.220Z,9.00
2023-01-09T13:57:31.248Z,8.90
2023-01-09T14:02:36.143Z,8.90
2023-01-09T14:07:40.416Z,8.80
2023-01-09T14:12:43.808Z,8.90
2023-01-09T14:17:45.655Z,8.70
2023-01-09T14:28:18.256Z,8.50
2023-01-09T14:33:20.109Z,8.60
2023-01-09T14:38:34.869Z,8.20
2023-01-09T14:44:01.904Z,7.60
2023-01-09T14:49:24.448Z,7.70
2023-01-09T14:54:35.043Z,7.90
2023-01-09T14:59:37.013Z,7.90
2023-01-09T15:04:41.246Z,7.90
2023-01-09T15:09:46.732Z,8.00
2023-01-09T15:14:53.811Z,7.80
2023-01-09T15:24:59.408Z,7.60
2023-01-09T15:30:16.523Z,7.70
2023-01-09T15:35:19.975Z,7.70
2023-01-09T15:40:32.115Z,7.60
2023-01-09T15:45:40.827Z,8.60
2023-01-09T15:50:43.591Z,7.80
2023-01-09T15:55:47.613Z,7.90
2023-01-09T16:00:56.139Z,7.70
2023-01-09T16:06:10.069Z,7.20
2023-01-09T16:11:25.265Z,7.20
2023-01-09T16:16:33.794Z,7.20
2023-01-09T16:21:37.166Z,7.00
2023-01-09T16:26:38.890Z,7.70
2023-01-09T16:36:42.925Z,7.00
2023-01-09T16:42:03.554Z,7.50
2023-01-09T16:47:05.473Z,7.10
2023-01-09T16:52:16.239Z,7.20
2023-01-09T16:57:18.930Z,7.00
2023-01-09T17:02:20.807Z,7.20
2023-01-09T17:07:25.623Z,7.40
2023-01-09T17:12:28.035Z,7.20
2023-01-09T17:17:29.902Z,7.10
2023-01-09T17:22:31.640Z,9.00
2023-01-09T17:27:54.831Z,6.90
2023-01-09T17:32:56.632Z,6.90
2023-01-09T17:37:58.433Z,6.90
2023-01-09T17:48:02.314Z,7.10
2023-01-09T17:53:04.053Z,7.30
2023-01-09T17:58:06.366Z,10.40
2023-01-09T18:08:13.447Z,7.30
2023-01-09T18:13:18.276Z,7.40
2023-01-09T18:18:20.208Z,7.70
2023-01-09T18:23:22.367Z,7.50
2023-01-09T18:28:24.288Z,8.10
2023-01-09T18:33:26.041Z,7.60
2023-01-09T18:38:30.142Z,7.80
2023-01-09T18:48:34.665Z,7.10
2023-01-09T18:53:36.422Z,8.60
2023-01-09T18:58:38.221Z,6.70
2023-01-09T19:03:40.117Z,6.70
2023-01-09T19:13:44.701Z,6.70
2023-01-09T19:23:49.461Z,6.50
2023-01-09T19:33:57.721Z,6.60
2023-01-09T19:39:01.074Z,6.60
2023-01-09T19:54:10.453Z,6.60
2023-01-09T20:09:22.502Z,6.50
2023-01-09T20:14:24.583Z,6.50
2023-01-09T20:19:28.491Z,6.60
2023-01-09T20:24:30.398Z,6.60
2023-01-09T20:29:32.241Z,6.60
2023-01-09T20:34:33.988Z,7.70
2023-01-09T20:39:35.737Z,6.60
2023-01-09T20:44:37.531Z,6.60
2023-01-09T20:49:39.212Z,6.70
2023-01-09T20:54:41.849Z,9.80
2023-01-09T20:59:43.598Z,8.00
2023-01-09T21:04:45.318Z,6.80
2023-01-09T21:19:51.448Z,7.00
2023-01-09T21:29:55.783Z,7.10
2023-01-09T21:35:00.628Z,7.90
2023-01-09T21:45:23.908Z,6.90
2023-01-09T21:50:25.758Z,6.90
2023-01-09T22:00:29.870Z,7.00
2023-01-09T22:05:31.619Z,6.90
2023-01-09T22:10:33.380Z,7.00
2023-01-09T22:15:35.130Z,7.10
2023-01-09T22:20:36.931Z,6.80
2023-01-09T22:25:39.209Z,7.00
2023-01-09T22:30:41.686Z,7.00
2023-01-09T22:40:45.993Z,7.00
2023-01-09T22:45:47.781Z,5.50
2023-01-09T22:50:49.606Z,7.70
2023-01-09T22:56:03.111Z,7.00
2023-01-09T23:01:06.021Z,7.10
2023-01-09T23:06:14.755Z,7.20
2023-01-09T23:11:43.566Z,7.10
2023-01-09T23:21:47.865Z,7.00
2023-01-09T23:36:57.508Z,6.90
2023-01-09T23:47:20.223Z,6.80
2023-01-09T23:52:22.054Z,6.80
2023-01-09T23:57:23.833Z,6.90
